createdAt,value
2018-03-27T00:00:09.744Z,-69.00
2018-03-27T00:01:09.646Z,-69.00
2018-03-27T00:02:09.652Z,-69.00
2018-03-27T00:03:09.578Z,-69.00
2018-03-27T00:04:09.666Z,-69.00
2018-03-27T00:05:09.527Z,-69.00
2018-03-27T00:06:09.575Z,-69.00
2018-03-27T00:07:09.480Z,-69.00
2018-03-27T00:08:09.588Z,-69.00
2018-03-27T00:09:09.420Z,-69.00
2018-03-27T00:10:09.535Z,-69.00
2018-03-27T00:11:09.371Z,-69.00
2018-03-27T00:12:09.409Z,-69.00
2018-03-27T00:13:09.315Z,-69.00
2018-03-27T00:14:09.322Z,-69.00
2018-03-27T00:15:09.256Z,-69.00
2018-03-27T00:16:09.329Z,-69.00
2018-03-27T00:17:09.208Z,-69.00
2018-03-27T00:18:09.249Z,-69.00
2018-03-27T00:19:09.152Z,-69.00
2018-03-27T00:20:09.162Z,-69.00
2018-03-27T00:21:09.106Z,-69.00
2018-03-27T00:22:09.170Z,-69.00
2018-03-27T00:23:09.043Z,-69.00
2018-03-27T00:24:09.074Z,-69.00
2018-03-27T00:25:08.984Z,-69.00
2018-03-27T00:26:08.998Z,-69.00
2018-03-27T00:27:08.941Z,-69.00
2018-03-27T00:28:09.003Z,-69.00
2018-03-27T00:29:08.882Z,-69.00
2018-03-27T00:30:08.920Z,-69.00
2018-03-27T00:31:08.822Z,-69.00
2018-03-27T00:32:08.830Z,-69.00
2018-03-27T00:33:08.775Z,-69.00
2018-03-27T00:34:08.843Z,-69.00
2018-03-27T00:35:08.718Z,-69.00
2018-03-27T00:36:08.745Z,-69.00
2018-03-27T00:37:08.659Z,-69.00
2018-03-27T00:38:08.663Z,-69.00
2018-03-27T00:39:08.613Z,-69.00
2018-03-27T00:40:08.669Z,-69.00
2018-03-27T00:41:08.612Z,-69.00
2018-03-27T00:42:08.584Z,-69.00
2018-03-27T00:43:08.516Z,-69.00
2018-03-27T00:44:08.500Z,-69.00
2018-03-27T00:45:08.449Z,-69.00
2018-03-27T00:46:08.504Z,-69.00
2018-03-27T00:47:08.388Z,-69.00
2018-03-27T00:48:08.419Z,-69.00
2018-03-27T00:49:08.339Z,-69.00
2018-03-27T00:50:08.326Z,-69.00
2018-03-27T00:51:08.283Z,-69.00
2018-03-27T00:52:08.338Z,-69.00
2018-03-27T00:53:08.230Z,-69.00
2018-03-27T00:54:08.248Z,-69.00
2018-03-27T00:55:08.185Z,-69.00
2018-03-27T00:56:08.160Z,-69.00
2018-03-27T00:57:08.118Z,-69.00
2018-03-27T00:58:08.173Z,-69.00
2018-03-27T00:59:08.063Z,-69.00
2018-03-27T01:00:08.084Z,-69.00
2018-03-27T01:01:08.019Z,-69.00
2018-03-27T01:02:08.096Z,-69.00
2018-03-27T01:03:07.962Z,-69.00
2018-03-27T01:04:08.007Z,-69.00
2018-03-27T01:05:07.909Z,-69.00
2018-03-27T01:06:07.926Z,-69.00
2018-03-27T01:07:07.852Z,-69.00
2018-03-27T01:08:07.846Z,-69.00
2018-03-27T01:09:07.797Z,-69.00
2018-03-27T01:10:07.846Z,-69.00
2018-03-27T01:11:07.746Z,-69.00
2018-03-27T01:12:07.758Z,-69.00
2018-03-27T01:13:07.686Z,-69.00
2018-03-27T01:14:08.694Z,-69.00
2018-03-27T01:15:07.678Z,-69.00
2018-03-27T01:16:07.681Z,-69.00
2018-03-27T01:17:07.586Z,-69.00
2018-03-27T01:18:07.592Z,-69.00
2018-03-27T01:19:07.523Z,-69.00
2018-03-27T01:20:07.607Z,-69.00
2018-03-27T01:21:07.487Z,-69.00
2018-03-27T01:22:07.549Z,-69.00
2018-03-27T01:23:07.416Z,-69.00
2018-03-27T01:24:07.430Z,-69.00
2018-03-27T01:25:07.361Z,-69.00
2018-03-27T01:26:07.443Z,-69.00
2018-03-27T01:27:07.304Z,-69.00
2018-03-27T01:28:07.354Z,-69.00
2018-03-27T01:29:07.251Z,-69.00
2018-03-27T01:30:07.265Z,-69.00
2018-03-27T01:31:07.212Z,-69.00
2018-03-27T01:32:07.281Z,-69.00
2018-03-27T01:33:07.147Z,-69.00
2018-03-27T01:34:07.192Z,-69.00
2018-03-27T01:35:07.092Z,-69.00
2018-03-27T01:36:07.103Z,-69.00
2018-03-27T01:37:07.047Z,-69.00
2018-03-27T01:38:07.112Z,-69.00
2018-03-27T01:39:06.985Z,-69.00
2018-03-27T01:40:08.052Z,-69.00
2018-03-27T01:41:06.928Z,-69.00
2018-03-27T01:42:06.937Z,-69.00
2018-03-27T01:43:06.878Z,-69.00
2018-03-27T01:44:06.952Z,-69.00
2018-03-27T01:45:06.821Z,-69.00
2018-03-27T01:46:06.863Z,-69.00
2018-03-27T01:47:06.767Z,-69.00
2018-03-27T01:48:06.777Z,-69.00
2018-03-27T01:49:06.715Z,-69.00
2018-03-27T01:50:06.790Z,-69.00
2018-03-27T01:51:06.653Z,-69.00
2018-03-27T01:52:06.699Z,-69.00
2018-03-27T01:53:06.604Z,-69.00
2018-03-27T01:54:06.611Z,-69.00
2018-03-27T01:55:06.553Z,-69.00
2018-03-27T01:56:06.625Z,-69.00
2018-03-27T01:57:06.496Z,-69.00
2018-03-27T01:58:06.536Z,-69.00
2018-03-27T01:59:06.444Z,-69.00
2018-03-27T02:00:06.449Z,-69.00
2018-03-27T02:01:06.384Z,-69.00
2018-03-27T02:02:06.466Z,-69.00
2018-03-27T02:03:06.330Z,-69.00
2018-03-27T02:04:06.375Z,-69.00
2018-03-27T02:05:06.274Z,-69.00
2018-03-27T02:06:06.284Z,-69.00
2018-03-27T02:07:06.228Z,-69.00
2018-03-27T02:08:06.295Z,-69.00
2018-03-27T02:09:06.169Z,-69.00
2018-03-27T02:10:06.206Z,-69.00
2018-03-27T02:11:06.109Z,-69.00
2018-03-27T02:12:06.116Z,-69.00
2018-03-27T02:13:06.060Z,-69.00
2018-03-27T02:14:06.137Z,-69.00
2018-03-27T02:15:06.005Z,-69.00
2018-03-27T02:16:06.043Z,-69.00
2018-03-27T02:17:05.950Z,-69.00
2018-03-27T02:18:05.955Z,-69.00
2018-03-27T02:19:05.898Z,-69.00
2018-03-27T02:20:05.969Z,-69.00
2018-03-27T02:21:05.842Z,-69.00
2018-03-27T02:22:05.879Z,-69.00
2018-03-27T02:23:05.794Z,-69.00
2018-03-27T02:24:06.832Z,-69.00
2018-03-27T02:25:05.752Z,-69.00
2018-03-27T02:26:05.705Z,-69.00
2018-03-27T02:27:05.720Z,-69.00
2018-03-27T02:28:05.656Z,-69.00
2018-03-27T02:29:05.725Z,-69.00
2018-03-27T02:30:05.602Z,-69.00
2018-03-27T02:31:05.630Z,-69.00
2018-03-27T02:32:05.547Z,-69.00
2018-03-27T02:33:05.546Z,-69.00
2018-03-27T02:34:05.496Z,-69.00
2018-03-27T02:35:05.586Z,-69.00
2018-03-27T02:36:05.462Z,-69.00
2018-03-27T02:37:05.468Z,-69.00
2018-03-27T02:38:05.430Z,-69.00
2018-03-27T02:39:05.384Z,-69.00
2018-03-27T02:40:05.331Z,-69.00
2018-03-27T02:41:05.392Z,-69.00
2018-03-27T02:42:05.298Z,-69.00
2018-03-27T02:43:05.303Z,-69.00
2018-03-27T02:44:05.222Z,-69.00
2018-03-27T02:45:05.227Z,-69.00
2018-03-27T02:46:05.159Z,-69.00
2018-03-27T02:47:05.234Z,-69.00
2018-03-27T02:48:05.129Z,-69.00
2018-03-27T02:49:05.598Z,-69.00
2018-03-27T02:50:05.063Z,-69.00
2018-03-27T02:51:05.058Z,-69.00
2018-03-27T02:52:05.002Z,-69.00
2018-03-27T02:53:05.986Z,-69.00
2018-03-27T02:54:04.953Z,-69.00
2018-03-27T02:55:04.977Z,-69.00
2018-03-27T02:56:04.909Z,-69.00
2018-03-27T02:57:04.899Z,-69.00
2018-03-27T02:58:04.840Z,-69.00
2018-03-27T02:59:04.904Z,-69.00
2018-03-27T03:00:06.601Z,-69.00
2018-03-27T03:01:04.818Z,-69.00
2018-03-27T03:02:04.730Z,-69.00
2018-03-27T03:03:04.725Z,-69.00
2018-03-27T03:04:04.681Z,-69.00
2018-03-27T03:05:05.662Z,-69.00
2018-03-27T03:06:04.621Z,-69.00
2018-03-27T03:07:04.661Z,-69.00
2018-03-27T03:08:04.566Z,-69.00
2018-03-27T03:09:04.567Z,-69.00
2018-03-27T03:10:04.512Z,-69.00
2018-03-27T03:11:05.114Z,-69.00
2018-03-27T03:12:04.457Z,-69.00
2018-03-27T03:13:05.106Z,-69.00
2018-03-27T03:14:04.409Z,-69.00
2018-03-27T03:15:04.408Z,-69.00
2018-03-27T03:16:04.354Z,-69.00
2018-03-27T03:17:04.415Z,-69.00
2018-03-27T03:18:04.292Z,-69.00
2018-03-27T03:19:04.354Z,-69.00
2018-03-27T03:20:04.246Z,-69.00
2018-03-27T03:21:04.275Z,-69.00
2018-03-27T03:22:04.186Z,-69.00
2018-03-27T03:23:04.247Z,-69.00
2018-03-27T03:24:04.133Z,-69.00
2018-03-27T03:25:04.164Z,-69.00
2018-03-27T03:26:04.110Z,-69.00
2018-03-27T03:27:04.074Z,-69.00
2018-03-27T03:28:04.016Z,-69.00
2018-03-27T03:29:04.117Z,-69.00
2018-03-27T03:30:03.973Z,-69.00
2018-03-27T03:31:03.999Z,-69.00
2018-03-27T03:32:03.930Z,-69.00
2018-03-27T03:33:03.908Z,-69.00
2018-03-27T03:34:03.863Z,-69.00
2018-03-27T03:35:03.945Z,-73.00
2018-03-27T03:36:03.798Z,-73.00
2018-03-27T03:37:05.801Z,-73.00
2018-03-27T03:38:03.750Z,-73.00
2018-03-27T03:39:04.790Z,-72.00
2018-03-27T03:40:03.689Z,-67.00
2018-03-27T03:41:03.781Z,-67.00
2018-03-27T03:42:03.638Z,-67.00
2018-03-27T03:43:03.693Z,-67.00
2018-03-27T03:44:03.582Z,-67.00
2018-03-27T03:45:03.603Z,-67.00
2018-03-27T03:46:03.530Z,-67.00
2018-03-27T03:47:03.616Z,-67.00
2018-03-27T03:48:03.478Z,-67.00
2018-03-27T03:49:03.525Z,-67.00
2018-03-27T03:50:03.423Z,-67.00
2018-03-27T03:51:03.438Z,-67.00
2018-03-27T03:52:03.366Z,-67.00
2018-03-27T03:53:03.455Z,-67.00
2018-03-27T03:54:03.310Z,-67.00
2018-03-27T03:55:03.358Z,-67.00
2018-03-27T03:56:03.260Z,-67.00
2018-03-27T03:57:03.273Z,-67.00
2018-03-27T03:58:03.200Z,-67.00
2018-03-27T03:59:03.287Z,-67.00
2018-03-27T04:00:03.151Z,-67.00
2018-03-27T04:01:03.197Z,-67.00
2018-03-27T04:02:03.105Z,-67.00
2018-03-27T04:03:03.120Z,-67.00
2018-03-27T04:04:03.036Z,-67.00
2018-03-27T04:05:03.122Z,-67.00
2018-03-27T04:06:02.982Z,-67.00
2018-03-27T04:07:03.034Z,-67.00
2018-03-27T04:08:02.930Z,-67.00
2018-03-27T04:09:02.956Z,-67.00
2018-03-27T04:10:02.881Z,-67.00
2018-03-27T04:11:02.970Z,-67.00
2018-03-27T04:12:02.818Z,-67.00
2018-03-27T04:13:02.880Z,-68.00
2018-03-27T04:14:02.765Z,-67.00
2018-03-27T04:15:02.780Z,-67.00
2018-03-27T04:16:02.723Z,-67.00
2018-03-27T04:17:02.792Z,-67.00
2018-03-27T04:18:02.655Z,-67.00
2018-03-27T04:19:02.707Z,-67.00
2018-03-27T04:20:02.625Z,-67.00
2018-03-27T04:21:03.635Z,-67.00
2018-03-27T04:22:03.126Z,-67.00
2018-03-27T04:23:02.633Z,-67.00
2018-03-27T04:24:02.496Z,-67.00
2018-03-27T04:25:02.540Z,-67.00
2018-03-27T04:26:02.438Z,-67.00
2018-03-27T04:27:03.477Z,-67.00
2018-03-27T04:28:02.381Z,-67.00
2018-03-27T04:29:02.467Z,-67.00
2018-03-27T04:30:02.330Z,-67.00
2018-03-27T04:31:02.381Z,-67.00
2018-03-27T04:32:02.274Z,-67.00
2018-03-27T04:33:03.315Z,-67.00
2018-03-27T04:34:02.221Z,-67.00
2018-03-27T04:35:02.306Z,-67.00
2018-03-27T04:36:02.168Z,-67.00
2018-03-27T04:37:02.219Z,-67.00
2018-03-27T04:38:02.137Z,-67.00
2018-03-27T04:39:02.129Z,-67.00
2018-03-27T04:40:02.062Z,-67.00
2018-03-27T04:41:02.138Z,-67.00
2018-03-27T04:42:01.996Z,-67.00
2018-03-27T04:43:02.052Z,-67.00
2018-03-27T04:44:01.944Z,-67.00
2018-03-27T04:45:02.988Z,-67.00
2018-03-27T04:46:01.910Z,-67.00
2018-03-27T04:47:02.024Z,-67.00
2018-03-27T04:48:01.833Z,-67.00
2018-03-27T04:49:01.895Z,-67.00
2018-03-27T04:50:01.782Z,-67.00
2018-03-27T04:51:01.795Z,-67.00
2018-03-27T04:52:01.728Z,-67.00
2018-03-27T04:53:01.717Z,-67.00
2018-03-27T04:54:01.667Z,-67.00
2018-03-27T04:55:01.719Z,-67.00
2018-03-27T04:56:01.613Z,-67.00
2018-03-27T04:57:01.639Z,-67.00
2018-03-27T04:58:01.562Z,-67.00
2018-03-27T04:59:01.651Z,-67.00
2018-03-27T05:00:01.506Z,-67.00
2018-03-27T05:01:01.561Z,-67.00
2018-03-27T05:02:01.454Z,-67.00
2018-03-27T05:03:01.472Z,-67.00
2018-03-27T05:04:01.398Z,-67.00
2018-03-27T05:05:01.387Z,-67.00
2018-03-27T05:06:01.341Z,-67.00
2018-03-27T05:07:01.397Z,-67.00
2018-03-27T05:08:01.286Z,-67.00
2018-03-27T05:09:01.315Z,-67.00
2018-03-27T05:10:01.234Z,-67.00
2018-03-27T05:11:01.228Z,-67.00
2018-03-27T05:12:01.235Z,-67.00
2018-03-27T05:13:01.237Z,-68.00
2018-03-27T05:14:01.119Z,-67.00
2018-03-27T05:15:01.141Z,-67.00
2018-03-27T05:16:01.067Z,-67.00
2018-03-27T05:17:01.057Z,-67.00
2018-03-27T05:18:01.011Z,-67.00
2018-03-27T05:19:01.072Z,-67.00
2018-03-27T05:20:00.957Z,-67.00
2018-03-27T05:21:00.995Z,-67.00
2018-03-27T05:22:00.898Z,-68.00
2018-03-27T05:23:01.007Z,-68.00
2018-03-27T05:24:00.849Z,-68.00
2018-03-27T05:25:00.903Z,-68.00
2018-03-27T05:26:00.790Z,-68.00
2018-03-27T05:27:00.824Z,-67.00
2018-03-27T05:28:00.748Z,-68.00
2018-03-27T05:29:00.732Z,-67.00
2018-03-27T05:30:00.684Z,-67.00
2018-03-27T05:31:00.738Z,-67.00
2018-03-27T05:32:00.642Z,-67.00
2018-03-27T05:33:00.658Z,-67.00
2018-03-27T05:34:00.575Z,-68.00
2018-03-27T05:35:00.576Z,-68.00
2018-03-27T05:36:00.511Z,-68.00
2018-03-27T05:37:00.574Z,-67.00
2018-03-27T05:38:00.563Z,-67.00
2018-03-27T05:39:00.483Z,-68.00
2018-03-27T05:40:00.405Z,-68.00
2018-03-27T05:41:00.395Z,-68.00
2018-03-27T05:42:00.346Z,-68.00
2018-03-27T05:43:00.408Z,-68.00
2018-03-27T05:44:00.309Z,-68.00
2018-03-27T05:45:00.317Z,-67.00
2018-03-27T05:46:00.239Z,-67.00
2018-03-27T05:47:00.330Z,-67.00
2018-03-27T05:48:00.183Z,-68.00
2018-03-27T05:49:00.242Z,-68.00
2018-03-27T05:50:00.143Z,-69.00
2018-03-27T05:51:00.230Z,-71.00
2018-03-27T05:52:00.085Z,-72.00
2018-03-27T05:53:00.065Z,-73.00
2018-03-27T05:54:00.138Z,-72.00
2018-03-27T05:54:59.999Z,-73.00
2018-03-27T05:56:00.055Z,-71.00
2018-03-27T05:56:59.936Z,-71.00
2018-03-27T05:57:59.967Z,-73.00
2018-03-27T05:58:59.898Z,-73.00
2018-03-27T06:00:01.921Z,-75.00
2018-03-27T06:00:59.840Z,-73.00
2018-03-27T06:01:59.893Z,-72.00
2018-03-27T06:02:59.771Z,-70.00
2018-03-27T06:03:59.795Z,-72.00
2018-03-27T06:04:59.751Z,-71.00
2018-03-27T06:05:59.708Z,-71.00
2018-03-27T06:06:59.672Z,-72.00
2018-03-27T06:08:00.743Z,-71.00
2018-03-27T06:08:59.638Z,-70.00
2018-03-27T06:09:59.621Z,-70.00
2018-03-27T06:10:59.564Z,-70.00
2018-03-27T06:11:59.669Z,-72.00
2018-03-27T06:12:59.504Z,-69.00
2018-03-27T06:13:59.563Z,-70.00
2018-03-27T06:14:59.450Z,-76.00
2018-03-27T06:15:59.445Z,-74.00
2018-03-27T06:16:59.397Z,-74.00
2018-03-27T06:17:59.459Z,-71.00
2018-03-27T06:18:59.347Z,-77.00
2018-03-27T06:19:59.375Z,-77.00
2018-03-27T06:20:59.290Z,-77.00
2018-03-27T06:22:00.323Z,-68.00
2018-03-27T06:22:59.232Z,-71.00
2018-03-27T06:23:59.345Z,-71.00
2018-03-27T06:24:59.174Z,-71.00
2018-03-27T06:25:59.157Z,-71.00
2018-03-27T06:26:59.124Z,-70.00
2018-03-27T06:27:59.094Z,-71.00
2018-03-27T06:28:59.123Z,-72.00
2018-03-27T06:29:59.043Z,-79.00
2018-03-27T06:30:59.021Z,-78.00
2018-03-27T06:31:59.092Z,-69.00
2018-03-27T06:33:00.172Z,-72.00
2018-03-27T06:33:58.938Z,-72.00
2018-03-27T06:34:58.963Z,-69.00
2018-03-27T06:35:58.887Z,-72.00
2018-03-27T06:36:59.276Z,-72.00
2018-03-27T06:37:58.827Z,-72.00
2018-03-27T06:38:58.873Z,-72.00
2018-03-27T06:39:58.775Z,-72.00
2018-03-27T06:40:58.762Z,-78.00
2018-03-27T06:41:58.816Z,-78.00
2018-03-27T06:42:58.700Z,-78.00
2018-03-27T06:43:58.700Z,-78.00
2018-03-27T06:44:58.646Z,-69.00
2018-03-27T06:45:58.727Z,-69.00
2018-03-27T06:46:58.594Z,-69.00
2018-03-27T06:47:58.640Z,-69.00
2018-03-27T06:48:58.535Z,-69.00
2018-03-27T06:49:59.188Z,-69.00
2018-03-27T06:50:58.490Z,-69.00
2018-03-27T06:52:10.231Z,-69.00
2018-03-27T06:52:58.427Z,-69.00
2018-03-27T06:54:00.525Z,-69.00
2018-03-27T06:54:58.375Z,-69.00
2018-03-27T06:55:59.392Z,-69.00
2018-03-27T06:56:58.334Z,-69.00
2018-03-27T06:57:59.419Z,-69.00
2018-03-27T06:58:58.277Z,-69.00
2018-03-27T06:59:58.263Z,-69.00
2018-03-27T07:00:58.301Z,-69.00
2018-03-27T07:02:04.247Z,-69.00
2018-03-27T07:02:58.172Z,-69.00
2018-03-27T07:03:59.167Z,-69.00
2018-03-27T07:04:58.122Z,-69.00
2018-03-27T07:05:58.123Z,-69.00
2018-03-27T07:06:58.066Z,-69.00
2018-03-27T07:08:02.749Z,-69.00
2018-03-27T07:08:58.015Z,-69.00
2018-03-27T07:10:02.816Z,-69.00
2018-03-27T07:10:57.981Z,-69.00
2018-03-27T07:11:59.967Z,-69.00
2018-03-27T07:12:57.915Z,-69.00
2018-03-27T07:13:57.914Z,-69.00
2018-03-27T07:14:57.862Z,-70.00
2018-03-27T07:15:58.971Z,-69.00
2018-03-27T07:16:57.957Z,-69.00
2018-03-27T07:17:58.005Z,-69.00
2018-03-27T07:18:57.927Z,-69.00
2018-03-27T07:19:57.884Z,-70.00
2018-03-27T07:20:58.380Z,-69.00
2018-03-27T07:21:57.922Z,-69.00
2018-03-27T07:22:57.685Z,-69.00
2018-03-27T07:24:00.106Z,-69.00
2018-03-27T07:24:57.973Z,-69.00
2018-03-27T07:25:58.144Z,-69.00
2018-03-27T07:26:58.357Z,-69.00
2018-03-27T07:27:57.972Z,-69.00
2018-03-27T07:28:57.893Z,-69.00
2018-03-27T07:29:58.617Z,-69.00
2018-03-27T07:30:58.578Z,-69.00
2018-03-27T07:31:57.858Z,-69.00
2018-03-27T07:32:57.568Z,-70.00
2018-03-27T07:33:57.383Z,-69.00
2018-03-27T07:34:57.344Z,-69.00
2018-03-27T07:35:57.405Z,-69.00
2018-03-27T07:36:57.339Z,-69.00
2018-03-27T07:37:57.310Z,-69.00
2018-03-27T07:38:57.228Z,-69.00
2018-03-27T07:39:57.203Z,-69.00
2018-03-27T07:40:57.176Z,-69.00
2018-03-27T07:41:57.234Z,-69.00
2018-03-27T07:42:57.123Z,-69.00
2018-03-27T07:43:57.145Z,-70.00
2018-03-27T07:44:57.086Z,-69.00
2018-03-27T07:45:57.048Z,-70.00
2018-03-27T07:46:57.018Z,-69.00
2018-03-27T07:47:57.000Z,-69.00
2018-03-27T07:48:56.977Z,-69.00
2018-03-27T07:49:56.972Z,-70.00
2018-03-27T07:50:56.912Z,-70.00
2018-03-27T07:51:56.991Z,-69.00
2018-03-27T07:52:56.863Z,-69.00
2018-03-27T07:53:56.895Z,-69.00
2018-03-27T07:54:56.814Z,-69.00
2018-03-27T07:55:56.787Z,-69.00
2018-03-27T07:56:56.836Z,-69.00
2018-03-27T07:57:56.745Z,-69.00
2018-03-27T07:58:56.711Z,-69.00
2018-03-27T07:59:56.746Z,-69.00
2018-03-27T08:00:56.660Z,-69.00
2018-03-27T08:01:56.649Z,-69.00
2018-03-27T08:02:56.607Z,-70.00
2018-03-27T08:03:56.612Z,-70.00
2018-03-27T08:04:57.593Z,-70.00
2018-03-27T08:05:56.525Z,-70.00
2018-03-27T08:06:56.499Z,-70.00
2018-03-27T08:07:56.590Z,-70.00
2018-03-27T08:08:56.451Z,-70.00
2018-03-27T08:09:57.520Z,-70.00
2018-03-27T08:10:56.463Z,-69.00
2018-03-27T08:11:56.403Z,-69.00
2018-03-27T08:12:56.347Z,-69.00
2018-03-27T08:13:56.320Z,-70.00
2018-03-27T08:14:56.294Z,-70.00
2018-03-27T08:15:56.290Z,-69.00
2018-03-27T08:16:56.239Z,-69.00
2018-03-27T08:17:56.226Z,-69.00
2018-03-27T08:18:56.195Z,-69.00
2018-03-27T08:19:56.252Z,-70.00
2018-03-27T08:20:56.145Z,-69.00
2018-03-27T08:21:56.179Z,-70.00
2018-03-27T08:22:56.086Z,-70.00
2018-03-27T08:23:56.267Z,-70.00
2018-03-27T08:24:56.044Z,-69.00
2018-03-27T08:25:56.014Z,-70.00
2018-03-27T08:26:56.090Z,-70.00
2018-03-27T08:27:55.964Z,-70.00
2018-03-27T08:28:56.009Z,-69.00
2018-03-27T08:29:55.918Z,-70.00
2018-03-27T08:30:55.910Z,-69.00
2018-03-27T08:31:55.862Z,-69.00
2018-03-27T08:32:55.926Z,-70.00
2018-03-27T08:33:55.815Z,-70.00
2018-03-27T08:34:55.837Z,-69.00
2018-03-27T08:35:55.758Z,-70.00
2018-03-27T08:36:55.850Z,-70.00
2018-03-27T08:37:55.717Z,-70.00
2018-03-27T08:38:55.757Z,-69.00
2018-03-27T08:39:55.663Z,-70.00
2018-03-27T08:40:55.626Z,-70.00
2018-03-27T08:41:55.604Z,-70.00
2018-03-27T08:42:55.674Z,-70.00
2018-03-27T08:43:55.557Z,-70.00
2018-03-27T08:44:55.595Z,-70.00
2018-03-27T08:45:55.500Z,-70.00
2018-03-27T08:46:55.499Z,-69.00
2018-03-27T08:47:55.454Z,-69.00
2018-03-27T08:48:55.515Z,-69.00
2018-03-27T08:49:55.402Z,-69.00
2018-03-27T08:50:55.422Z,-70.00
2018-03-27T08:51:55.365Z,-70.00
2018-03-27T08:52:55.332Z,-70.00
2018-03-27T08:53:55.305Z,-69.00
2018-03-27T08:54:55.343Z,-69.00
2018-03-27T08:55:55.248Z,-70.00
2018-03-27T08:56:55.252Z,-70.00
2018-03-27T08:57:55.209Z,-70.00
2018-03-27T08:58:55.303Z,-70.00
2018-03-27T08:59:55.145Z,-70.00
2018-03-27T09:00:55.177Z,-70.00
2018-03-27T09:01:55.095Z,-69.00
2018-03-27T09:02:55.103Z,-70.00
2018-03-27T09:03:55.042Z,-70.00
2018-03-27T09:04:55.102Z,-69.00
2018-03-27T09:05:54.991Z,-69.00
2018-03-27T09:06:55.015Z,-69.00
2018-03-27T09:07:54.937Z,-69.00
2018-03-27T09:08:54.924Z,-69.00
2018-03-27T09:09:54.894Z,-69.00
2018-03-27T09:10:54.936Z,-70.00
2018-03-27T09:11:54.839Z,-70.00
2018-03-27T09:12:54.847Z,-70.00
2018-03-27T09:13:54.779Z,-70.00
2018-03-27T09:14:54.951Z,-70.00
2018-03-27T09:15:54.738Z,-70.00
2018-03-27T09:16:54.774Z,-69.00
2018-03-27T09:17:54.686Z,-69.00
2018-03-27T09:18:54.683Z,-69.00
2018-03-27T09:19:55.204Z,-69.00
2018-03-27T09:20:54.695Z,-69.00
2018-03-27T09:21:54.578Z,-69.00
2018-03-27T09:22:54.552Z,-69.00
2018-03-27T09:23:54.533Z,-70.00
2018-03-27T09:24:54.503Z,-70.00
2018-03-27T09:25:54.598Z,-70.00
2018-03-27T09:26:54.451Z,-71.00
2018-03-27T09:27:54.604Z,-70.00
2018-03-27T09:28:54.404Z,-70.00
2018-03-27T09:29:54.519Z,-70.00
2018-03-27T09:30:54.364Z,-70.00
2018-03-27T09:31:54.331Z,-72.00
2018-03-27T09:32:54.294Z,-69.00
2018-03-27T09:33:54.441Z,-69.00
2018-03-27T09:34:54.242Z,-69.00
2018-03-27T09:35:54.349Z,-69.00
2018-03-27T09:36:54.205Z,-69.00
2018-03-27T09:37:54.264Z,-69.00
2018-03-27T09:38:54.146Z,-71.00
2018-03-27T09:39:54.278Z,-69.00
2018-03-27T09:40:54.093Z,-70.00
2018-03-27T09:41:54.186Z,-70.00
2018-03-27T09:42:54.048Z,-70.00
2018-03-27T09:43:54.102Z,-70.00
2018-03-27T09:44:53.988Z,-69.00
2018-03-27T09:45:54.114Z,-69.00
2018-03-27T09:46:53.949Z,-70.00
2018-03-27T09:47:54.024Z,-69.00
2018-03-27T09:48:53.937Z,-70.00
2018-03-27T09:49:53.940Z,-70.00
2018-03-27T09:50:53.883Z,-69.00
2018-03-27T09:51:53.947Z,-69.00
2018-03-27T09:52:53.780Z,-69.00
2018-03-27T09:53:53.872Z,-69.00
2018-03-27T09:54:53.725Z,-69.00
2018-03-27T09:55:54.075Z,-69.00
2018-03-27T09:56:53.684Z,-69.00
2018-03-27T09:57:53.790Z,-69.00
2018-03-27T09:58:53.625Z,-69.00
2018-03-27T09:59:53.701Z,-69.00
2018-03-27T10:00:53.573Z,-70.00
2018-03-27T10:01:53.713Z,-70.00
2018-03-27T10:02:53.520Z,-69.00
2018-03-27T10:03:53.626Z,-69.00
2018-03-27T10:04:53.463Z,-69.00
2018-03-27T10:05:53.641Z,-69.00
2018-03-27T10:06:53.411Z,-69.00
2018-03-27T10:07:53.385Z,-69.00
2018-03-27T10:08:53.409Z,-69.00
2018-03-27T10:09:53.479Z,-69.00
2018-03-27T10:10:53.305Z,-69.00
2018-03-27T10:11:53.478Z,-69.00
2018-03-27T10:12:53.253Z,-69.00
2018-03-27T10:13:53.389Z,-69.00
2018-03-27T10:14:53.206Z,-69.00
2018-03-27T10:15:53.327Z,-70.00
2018-03-27T10:16:53.199Z,-71.00
2018-03-27T10:17:53.227Z,-72.00
2018-03-27T10:18:53.111Z,-72.00
2018-03-27T10:19:53.127Z,-72.00
2018-03-27T10:20:53.049Z,-70.00
2018-03-27T10:21:53.051Z,-70.00
2018-03-27T10:22:53.003Z,-70.00
2018-03-27T10:23:53.459Z,-70.00
2018-03-27T10:24:52.943Z,-71.00
2018-03-27T10:25:52.944Z,-71.00
2018-03-27T10:26:52.944Z,-70.00
2018-03-27T10:27:52.870Z,-71.00
2018-03-27T10:28:52.855Z,-71.00
2018-03-27T10:29:52.813Z,-71.00
2018-03-27T10:30:52.785Z,-71.00
2018-03-27T10:31:52.798Z,-71.00
2018-03-27T10:32:52.764Z,-71.00
2018-03-27T10:33:54.856Z,-71.00
2018-03-27T10:34:52.677Z,-71.00
2018-03-27T10:35:52.815Z,-71.00
2018-03-27T10:36:52.632Z,-71.00
2018-03-27T10:37:52.891Z,-72.00
2018-03-27T10:38:52.577Z,-72.00
2018-03-27T10:39:52.744Z,-72.00
2018-03-27T10:40:52.532Z,-72.00
2018-03-27T10:41:52.656Z,-71.00
2018-03-27T10:42:52.484Z,-72.00
2018-03-27T10:43:52.566Z,-71.00
2018-03-27T10:44:52.422Z,-72.00
2018-03-27T10:45:52.594Z,-72.00
2018-03-27T10:46:52.377Z,-71.00
2018-03-27T10:47:52.492Z,-71.00
2018-03-27T10:48:52.314Z,-71.00
2018-03-27T10:49:52.506Z,-71.00
2018-03-27T10:50:52.268Z,-71.00
2018-03-27T10:51:52.241Z,-72.00
2018-03-27T10:52:52.228Z,-72.00
2018-03-27T10:53:52.329Z,-72.00
2018-03-27T10:54:52.162Z,-72.00
2018-03-27T10:55:52.337Z,-69.00
2018-03-27T10:56:52.110Z,-69.00
2018-03-27T10:57:52.251Z,-69.00
2018-03-27T10:58:52.059Z,-69.00
2018-03-27T10:59:52.061Z,-69.00
2018-03-27T11:00:52.052Z,-69.00
2018-03-27T11:01:52.175Z,-69.00
2018-03-27T11:02:51.967Z,-68.00
2018-03-27T11:03:52.046Z,-68.00
2018-03-27T11:04:51.905Z,-68.00
2018-03-27T11:05:52.109Z,-68.00
2018-03-27T11:06:51.870Z,-68.00
2018-03-27T11:07:51.922Z,-69.00
2018-03-27T11:08:51.804Z,-69.00
2018-03-27T11:09:52.726Z,-69.00
2018-03-27T11:10:51.751Z,-69.00
2018-03-27T11:11:51.838Z,-69.00
2018-03-27T11:12:51.696Z,-69.00
2018-03-27T11:13:51.753Z,-69.00
2018-03-27T11:14:51.645Z,-69.00
2018-03-27T11:15:51.663Z,-69.00
2018-03-27T11:16:51.596Z,-69.00
2018-03-27T11:17:51.674Z,-69.00
2018-03-27T11:18:51.574Z,-69.00
2018-03-27T11:19:51.588Z,-69.00
2018-03-27T11:20:51.495Z,-69.00
2018-03-27T11:21:51.619Z,-69.00
2018-03-27T11:22:51.442Z,-70.00
2018-03-27T11:23:51.532Z,-69.00
2018-03-27T11:24:51.390Z,-70.00
2018-03-27T11:25:51.421Z,-70.00
2018-03-27T11:26:51.342Z,-70.00
2018-03-27T11:27:51.439Z,-70.00
2018-03-27T11:28:51.288Z,-70.00
2018-03-27T11:29:51.346Z,-69.00
2018-03-27T11:30:51.235Z,-70.00
2018-03-27T11:31:51.278Z,-69.00
2018-03-27T11:32:51.184Z,-69.00
2018-03-27T11:33:51.271Z,-69.00
2018-03-27T11:34:51.144Z,-69.00
2018-03-27T11:35:51.193Z,-70.00
2018-03-27T11:36:51.084Z,-70.00
2018-03-27T11:37:51.206Z,-70.00
2018-03-27T11:38:51.048Z,-70.00
2018-03-27T11:39:51.110Z,-70.00
2018-03-27T11:40:50.986Z,-70.00
2018-03-27T11:41:51.023Z,-70.00
2018-03-27T11:42:50.925Z,-70.00
2018-03-27T11:43:51.031Z,-70.00
2018-03-27T11:44:50.878Z,-70.00
2018-03-27T11:45:50.945Z,-70.00
2018-03-27T11:46:50.827Z,-70.00
2018-03-27T11:47:50.863Z,-70.00
2018-03-27T11:48:50.781Z,-69.00
2018-03-27T11:49:50.880Z,-70.00
2018-03-27T11:50:50.731Z,-69.00
2018-03-27T11:51:50.778Z,-69.00
2018-03-27T11:52:50.679Z,-69.00
2018-03-27T11:53:50.688Z,-69.00
2018-03-27T11:54:50.617Z,-69.00
2018-03-27T11:55:50.705Z,-69.00
2018-03-27T11:56:50.574Z,-70.00
2018-03-27T11:57:50.615Z,-69.00
2018-03-27T11:58:50.546Z,-69.00
2018-03-27T11:59:50.504Z,-71.00
2018-03-27T12:00:50.570Z,-70.00
2018-03-27T12:01:50.446Z,-71.00
2018-03-27T12:02:50.544Z,-71.00
2018-03-27T12:03:50.394Z,-71.00
2018-03-27T12:04:50.455Z,-71.00
2018-03-27T12:05:50.346Z,-70.00
2018-03-27T12:06:50.375Z,-72.00
2018-03-27T12:07:50.290Z,-70.00
2018-03-27T12:08:50.377Z,-70.00
2018-03-27T12:09:50.247Z,-70.00
2018-03-27T12:10:50.314Z,-71.00
2018-03-27T12:11:50.199Z,-71.00
2018-03-27T12:12:50.324Z,-71.00
2018-03-27T12:13:50.137Z,-70.00
2018-03-27T12:14:50.216Z,-70.00
2018-03-27T12:15:50.100Z,-70.00
2018-03-27T12:16:51.148Z,-69.00
2018-03-27T12:17:50.037Z,-70.00
2018-03-27T12:18:50.106Z,-69.00
2018-03-27T12:19:49.988Z,-69.00
2018-03-27T12:20:50.072Z,-69.00
2018-03-27T12:21:49.931Z,-69.00
2018-03-27T12:22:49.978Z,-68.00
2018-03-27T12:23:49.876Z,-68.00
2018-03-27T12:24:49.998Z,-72.00
2018-03-27T12:25:49.850Z,-72.00
2018-03-27T12:26:49.845Z,-71.00
2018-03-27T12:27:49.775Z,-72.00